Time;durP1;ratioP1;P1;durP2;ratioP2;P2;SDS_P1;SDS_P2;PMS_P1;PMS_P2;Temp;Humidity;BMP_temperature;BMP_pressure;BME280_temperature;BME280_humidity;BME280_pressure;Samples;Min_cycle;Max_cycle;Signal;HPM_P1;HPM_P2
2021/01/05 00:01:21;;;;;;;;;;;24.20;32.00;;;;;;5096194;28;19915;-57
2021/01/05 00:03:47;;;;;;;;;;;24.80;32.50;;;;;;5078968;28;20883;-54
2021/01/05 00:06:12;;;;;;;;;;;25.40;33.90;;;;;;5096118;28;19912;-64
2021/01/05 00:08:38;;;;;;;;;;;25.90;33.80;;;;;;5095620;28;19908;-62
2021/01/05 00:11:04;;;;;;;;;;;26.40;33.40;;;;;;5096013;28;19912;-69
2021/01/05 00:13:29;;;;;;;;;;;26.60;31.30;;;;;;5095791;28;19942;-70
2021/01/05 00:15:55;;;;;;;;;;;26.90;30.70;;;;;;5095594;28;19943;-60
2021/01/05 00:18:20;;;;;;;;;;;27.10;30.70;;;;;;5095019;28;19918;-60
2021/01/05 00:20:46;;;;;;;;;;;27.20;30.60;;;;;;5092775;28;19922;-54
2021/01/05 00:23:12;;;;;;;;;;;27.30;30.50;;;;;;5095818;28;20397;-57
2021/01/05 00:25:37;;;;;;;;;;;27.20;30.60;;;;;;5095504;28;19908;-58
2021/01/05 00:28:03;;;;;;;;;;;27.10;30.90;;;;;;5095406;28;19920;-58
2021/01/05 00:30:28;;;;;;;;;;;27.00;30.90;;;;;;5095614;28;19986;-58
2021/01/05 00:32:54;;;;;;;;;;;26.90;31.10;;;;;;5084072;28;19913;-58
2021/01/05 00:35:21;;;;;;;;;;;26.90;31.30;;;;;;5090294;28;20011;-58
2021/01/05 00:37:47;;;;;;;;;;;26.80;31.30;;;;;;5094696;28;19949;-58
2021/01/05 00:40:13;;;;;;;;;;;26.70;31.50;;;;;;5095515;28;19919;-58
2021/01/05 00:42:38;;;;;;;;;;;26.70;31.60;;;;;;5095131;28;19908;-58
2021/01/05 00:45:04;;;;;;;;;;;26.60;31.70;;;;;;5095265;28;19943;-59
2021/01/05 00:47:30;;;;;;;;;;;26.60;32.00;;;;;;5095293;28;20358;-58
2021/01/05 00:49:55;;;;;;;;;;;26.50;31.90;;;;;;5081051;28;19966;-59
2021/01/05 00:52:21;;;;;;;;;;;26.50;32.00;;;;;;5074999;28;19913;-58
2021/01/05 00:54:46;;;;;;;;;;;26.50;32.00;;;;;;5075006;28;19912;-59
2021/01/05 00:57:12;;;;;;;;;;;26.50;32.20;;;;;;5074578;28;19978;-59
2021/01/05 00:59:37;;;;;;;;;;;26.50;32.20;;;;;;5074572;28;19912;-58
2021/01/05 01:02:03;;;;;;;;;;;26.50;32.30;;;;;;5078362;28;19908;-58
2021/01/05 01:04:29;;;;;;;;;;;26.50;32.40;;;;;;5094766;28;19912;-58
2021/01/05 01:06:54;;;;;;;;;;;26.40;32.40;;;;;;5094910;28;19908;-58
2021/01/05 01:09:20;;;;;;;;;;;26.50;32.50;;;;;;5094570;28;19916;-58
2021/01/05 01:11:55;;;;;;;;;;;26.40;32.50;;;;;;5094901;28;20013;-58
2021/01/05 01:14:20;;;;;;;;;;;26.40;32.50;;;;;;5094530;28;19908;-58
2021/01/05 01:16:46;;;;;;;;;;;26.40;32.60;;;;;;5090952;28;19909;-58
2021/01/05 01:19:11;;;;;;;;;;;26.50;32.70;;;;;;5074244;28;20378;-58
2021/01/05 01:21:43;;;;;;;;;;;26.40;32.60;;;;;;5092453;28;19912;-58
2021/01/05 01:24:08;;;;;;;;;;;26.40;32.70;;;;;;5094393;28;19912;-58
2021/01/05 01:26:34;;;;;;;;;;;26.40;32.70;;;;;;5094189;28;19908;-58
2021/01/05 01:28:59;;;;;;;;;;;26.40;32.80;;;;;;5094149;28;19920;-58
2021/01/05 01:31:25;;;;;;;;;;;26.40;32.80;;;;;;5094188;28;19912;-58
2021/01/05 01:33:50;;;;;;;;;;;26.40;32.80;;;;;;5075970;28;19912;-58
2021/01/05 01:36:16;;;;;;;;;;;26.40;32.90;;;;;;5094127;28;19908;-59
2021/01/05 01:38:41;;;;;;;;;;;26.40;32.90;;;;;;5093961;28;19943;-58
2021/01/05 01:41:07;;;;;;;;;;;26.40;32.90;;;;;;5094307;28;19912;-58
2021/01/05 01:43:32;;;;;;;;;;;26.40;33.00;;;;;;5094006;28;20008;-58
2021/01/05 01:45:58;;;;;;;;;;;26.40;33.10;;;;;;5093958;28;19908;-58
2021/01/05 01:48:23;;;;;;;;;;;26.40;33.10;;;;;;5092217;28;19912;-58
2021/01/05 01:50:49;;;;;;;;;;;26.40;33.10;;;;;;5082065;28;19920;-58
2021/01/05 01:53:14;;;;;;;;;;;26.40;33.00;;;;;;5094082;28;19908;-58
2021/01/05 01:55:46;;;;;;;;;;;26.40;33.10;;;;;;5093910;28;19969;-58
2021/01/05 01:58:21;;;;;;;;;;;26.40;33.10;;;;;;5093770;28;19915;-58
2021/01/05 02:00:46;;;;;;;;;;;26.40;33.20;;;;;;5092580;28;19908;-58
2021/01/05 02:03:47;;;;;;;;;;;26.40;33.20;;;;;;5080632;28;19970;-58
2021/01/05 02:06:14;;;;;;;;;;;26.40;33.20;;;;;;5051128;28;19932;-58
2021/01/05 02:08:41;;;;;;;;;;;26.40;33.20;;;;;;5063858;28;19961;-58
2021/01/05 02:11:09;;;;;;;;;;;26.40;33.20;;;;;;5088950;28;19909;-59
2021/01/05 02:13:35;;;;;;;;;;;26.40;33.20;;;;;;5073110;28;20351;-58
2021/01/05 02:16:14;;;;;;;;;;;26.40;33.20;;;;;;5073390;28;19909;-58
2021/01/05 02:18:57;;;;;;;;;;;26.40;33.30;;;;;;5055084;28;19919;-58
2021/01/05 02:21:24;;;;;;;;;;;26.40;33.30;;;;;;5068732;28;19942;-58
2021/01/05 02:23:49;;;;;;;;;;;26.40;33.40;;;;;;5068807;28;19916;-58
2021/01/05 02:26:15;;;;;;;;;;;26.40;33.40;;;;;;5053373;28;19909;-58
2021/01/05 02:28:44;;;;;;;;;;;26.40;33.40;;;;;;5052723;28;20074;-59
2021/01/05 02:31:30;;;;;;;;;;;26.40;33.40;;;;;;5053895;28;19916;-58
2021/01/05 02:34:07;;;;;;;;;;;26.40;33.40;;;;;;5092831;28;19912;-58
2021/01/05 02:36:39;;;;;;;;;;;26.40;33.40;;;;;;5092144;28;19918;-58
2021/01/05 02:39:13;;;;;;;;;;;26.40;33.40;;;;;;5092219;28;19955;-58
2021/01/05 02:41:42;;;;;;;;;;;26.40;33.40;;;;;;5093337;28;19919;-58
2021/01/05 02:44:24;;;;;;;;;;;26.40;33.40;;;;;;5093395;28;20053;-58
2021/01/05 02:46:58;;;;;;;;;;;26.40;33.40;;;;;;5083472;28;20423;-58
2021/01/05 02:49:39;;;;;;;;;;;26.40;33.40;;;;;;5075018;28;19968;-58
2021/01/05 02:52:23;;;;;;;;;;;26.40;33.50;;;;;;5053092;28;19992;-58
2021/01/05 02:55:13;;;;;;;;;;;26.40;33.60;;;;;;5052849;28;19909;-58
2021/01/05 02:57:50;;;;;;;;;;;26.30;33.60;;;;;;5068534;28;19909;-58
2021/01/05 03:00:25;;;;;;;;;;;26.30;33.60;;;;;;5070304;28;19909;-58
2021/01/05 03:03:01;;;;;;;;;;;26.40;33.90;;;;;;5085149;28;19909;-58
2021/01/05 03:05:26;;;;;;;;;;;26.40;33.60;;;;;;5095808;28;20445;-58
2021/01/05 03:07:52;;;;;;;;;;;26.40;33.60;;;;;;5097269;28;19953;-58
2021/01/05 03:10:29;;;;;;;;;;;26.40;33.60;;;;;;5095884;28;19978;-58
2021/01/05 03:12:55;;;;;;;;;;;26.40;33.60;;;;;;5097089;28;19918;-58
2021/01/05 03:15:39;;;;;;;;;;;26.40;33.60;;;;;;5097136;28;19911;-58
2021/01/05 03:18:23;;;;;;;;;;;26.40;33.60;;;;;;5093296;28;20354;-58
2021/01/05 03:21:09;;;;;;;;;;;26.40;33.80;;;;;;5096765;28;20426;-59
2021/01/05 03:23:34;;;;;;;;;;;26.40;33.70;;;;;;5096333;28;19919;-58
2021/01/05 03:26:01;;;;;;;;;;;26.40;33.70;;;;;;5082672;28;19913;-58
2021/01/05 03:28:28;;;;;;;;;;;26.40;33.70;;;;;;5091968;28;19921;-58
2021/01/05 03:30:56;;;;;;;;;;;26.40;33.60;;;;;;5091904;28;19974;-58
2021/01/05 03:33:21;;;;;;;;;;;26.40;33.60;;;;;;5076397;28;20007;-58
2021/01/05 03:35:47;;;;;;;;;;;26.40;33.70;;;;;;5076319;28;19940;-58
2021/01/05 03:38:12;;;;;;;;;;;26.40;33.80;;;;;;5076045;28;19912;-58
2021/01/05 03:40:38;;;;;;;;;;;26.40;33.70;;;;;;5088380;28;20002;-58
2021/01/05 03:43:03;;;;;;;;;;;26.40;33.70;;;;;;5096559;28;20365;-58
2021/01/05 03:45:29;;;;;;;;;;;26.40;33.70;;;;;;5096245;28;19961;-58
2021/01/05 03:47:55;;;;;;;;;;;26.40;33.70;;;;;;5096409;28;19983;-59
2021/01/05 03:50:20;;;;;;;;;;;26.40;33.70;;;;;;5096408;28;20289;-59
2021/01/05 03:52:46;;;;;;;;;;;26.40;33.70;;;;;;5096280;28;20457;-59
2021/01/05 03:55:12;;;;;;;;;;;26.40;33.70;;;;;;5084887;28;20409;-59
2021/01/05 03:57:38;;;;;;;;;;;26.40;33.70;;;;;;5090576;28;20362;-58
2021/01/05 04:00:07;;;;;;;;;;;26.40;33.70;;;;;;5096323;28;19962;-59
2021/01/05 04:02:32;;;;;;;;;;;26.40;33.70;;;;;;5096169;28;19938;-59
2021/01/05 04:04:58;;;;;;;;;;;26.40;33.70;;;;;;5095917;28;19908;-58
2021/01/05 04:07:23;;;;;;;;;;;26.40;33.70;;;;;;5095844;28;19908;-58
2021/01/05 04:09:50;;;;;;;;;;;26.40;33.80;;;;;;5096002;28;19931;-59
2021/01/05 04:12:15;;;;;;;;;;;26.40;33.70;;;;;;5080257;28;20266;-59
2021/01/05 04:14:41;;;;;;;;;;;26.40;33.80;;;;;;5075467;28;19912;-58
2021/01/05 04:17:06;;;;;;;;;;;26.40;33.80;;;;;;5075547;28;19912;-58
2021/01/05 04:19:32;;;;;;;;;;;26.40;33.80;;;;;;5075590;28;20384;-58
2021/01/05 04:21:57;;;;;;;;;;;26.40;33.80;;;;;;5075332;28;20278;-58
2021/01/05 04:24:23;;;;;;;;;;;26.40;33.80;;;;;;5079305;28;19999;-59
2021/01/05 04:26:48;;;;;;;;;;;26.40;33.80;;;;;;5095737;28;20277;-58
2021/01/05 04:29:14;;;;;;;;;;;26.40;33.80;;;;;;5095169;28;19949;-58
2021/01/05 04:31:40;;;;;;;;;;;26.40;33.80;;;;;;5095592;28;19908;-58
2021/01/05 04:34:05;;;;;;;;;;;26.40;33.80;;;;;;5095648;28;19987;-58
2021/01/05 04:36:31;;;;;;;;;;;26.40;33.80;;;;;;5095301;28;20374;-58
2021/01/05 04:38:57;;;;;;;;;;;26.40;33.80;;;;;;5093220;28;19908;-59
2021/01/05 04:41:22;;;;;;;;;;;26.40;33.90;;;;;;5075226;28;20282;-58
2021/01/05 04:43:54;;;;;;;;;;;26.40;33.80;;;;;;5090436;28;19999;-59
2021/01/05 04:46:20;;;;;;;;;;;26.40;33.80;;;;;;5075031;28;19922;-59
2021/01/05 04:48:55;;;;;;;;;;;26.40;33.90;;;;;;5075103;28;20019;-58
2021/01/05 04:51:27;;;;;;;;;;;26.40;33.90;;;;;;5074789;28;19908;-58
2021/01/05 04:54:08;;;;;;;;;;;26.40;33.90;;;;;;5078289;28;19926;-59
2021/01/05 04:56:45;;;;;;;;;;;26.40;34.00;;;;;;5095174;28;19985;-59
2021/01/05 04:59:11;;;;;;;;;;;26.30;33.90;;;;;;5094022;28;19912;-58
2021/01/05 05:01:37;;;;;;;;;;;26.30;33.90;;;;;;5093741;28;19919;-58
2021/01/05 05:04:02;;;;;;;;;;;26.40;34.00;;;;;;5093871;28;19977;-58
2021/01/05 05:06:33;;;;;;;;;;;26.40;34.00;;;;;;5094678;28;20362;-58
2021/01/05 05:09:06;;;;;;;;;;;26.40;33.90;;;;;;5087565;28;20378;-58
2021/01/05 05:11:35;;;;;;;;;;;26.40;33.90;;;;;;5078139;28;19923;-58
2021/01/05 05:14:08;;;;;;;;;;;26.40;33.90;;;;;;5069960;28;19916;-59
2021/01/05 05:16:39;;;;;;;;;;;26.40;33.90;;;;;;5069648;28;20386;-59
2021/01/05 05:19:20;;;;;;;;;;;26.40;33.90;;;;;;5054123;28;20437;-59
2021/01/05 05:21:45;;;;;;;;;;;26.40;33.90;;;;;;5054210;28;19916;-58
2021/01/05 05:24:16;;;;;;;;;;;26.40;33.90;;;;;;5054030;28;19909;-58
2021/01/05 05:26:45;;;;;;;;;;;26.40;33.80;;;;;;5084325;28;20686;-58
2021/01/05 05:29:20;;;;;;;;;;;26.40;33.90;;;;;;5089611;28;20354;-58
2021/01/05 05:31:46;;;;;;;;;;;26.40;33.90;;;;;;5074209;28;19908;-58
2021/01/05 05:34:13;;;;;;;;;;;26.40;34.00;;;;;;5073912;28;20290;-58
2021/01/05 05:37:00;;;;;;;;;;;26.40;34.00;;;;;;5089459;28;20407;-58
2021/01/05 05:39:35;;;;;;;;;;;26.40;33.90;;;;;;5088683;28;19912;-58
2021/01/05 05:42:19;;;;;;;;;;;26.40;33.90;;;;;;5089335;28;19940;-59
2021/01/05 05:45:14;;;;;;;;;;;26.40;34.00;;;;;;5073932;28;19943;-58
2021/01/05 05:47:42;;;;;;;;;;;26.30;34.00;;;;;;5068927;28;19916;-58
2021/01/05 05:50:16;;;;;;;;;;;26.30;34.70;;;;;;5073515;28;19979;-59
2021/01/05 05:52:47;;;;;;;;;;;26.40;34.70;;;;;;5089579;28;19909;-59
2021/01/05 05:55:35;;;;;;;;;;;26.40;34.00;;;;;;5079234;28;20326;-58
2021/01/05 05:58:01;;;;;;;;;;;26.40;33.90;;;;;;5070375;28;19915;-59
2021/01/05 06:00:31;;;;;;;;;;;26.40;34.00;;;;;;5089475;28;19999;-58
2021/01/05 06:02:58;;;;;;;;;;;26.40;34.00;;;;;;5085003;28;20441;-58
2021/01/05 06:05:23;;;;;;;;;;;26.40;34.00;;;;;;5053656;28;19947;-58
2021/01/05 06:07:48;;;;;;;;;;;26.40;34.00;;;;;;5053607;28;19952;-58
2021/01/05 06:10:14;;;;;;;;;;;26.40;34.00;;;;;;5053235;28;19920;-58
2021/01/05 06:12:39;;;;;;;;;;;26.40;33.90;;;;;;5053392;28;19908;-58
2021/01/05 06:15:05;;;;;;;;;;;26.40;33.90;;;;;;5053176;28;19908;-58
2021/01/05 06:17:31;;;;;;;;;;;26.40;33.90;;;;;;5056001;28;19963;-58
2021/01/05 06:19:56;;;;;;;;;;;26.40;34.00;;;;;;5073500;28;19912;-58
2021/01/05 06:22:22;;;;;;;;;;;26.40;33.90;;;;;;5073209;28;19908;-58
2021/01/05 06:24:47;;;;;;;;;;;26.40;34.00;;;;;;5073224;28;20740;-58
2021/01/05 06:27:12;;;;;;;;;;;26.40;34.00;;;;;;5072960;28;19923;-59
2021/01/05 06:29:38;;;;;;;;;;;26.40;34.00;;;;;;5072796;28;19958;-59
2021/01/05 06:32:03;;;;;;;;;;;26.40;34.00;;;;;;5085411;28;20323;-59
2021/01/05 06:34:29;;;;;;;;;;;26.50;34.00;;;;;;5072303;28;19908;-58
2021/01/05 06:36:54;;;;;;;;;;;26.40;34.00;;;;;;5073105;28;19916;-58
2021/01/05 06:39:20;;;;;;;;;;;26.40;34.00;;;;;;5073131;28;19943;-58
2021/01/05 06:41:45;;;;;;;;;;;26.40;34.10;;;;;;5072843;28;20390;-58
2021/01/05 06:44:11;;;;;;;;;;;26.40;34.00;;;;;;5072839;28;19908;-59
2021/01/05 06:46:36;;;;;;;;;;;26.40;34.00;;;;;;5072645;28;19913;-59
2021/01/05 06:49:02;;;;;;;;;;;26.40;33.90;;;;;;5072896;28;19908;-59
2021/01/05 06:51:27;;;;;;;;;;;26.40;34.10;;;;;;5072760;28;19908;-59
2021/01/05 06:53:52;;;;;;;;;;;26.40;34.00;;;;;;5072912;28;19913;-59
2021/01/05 06:56:18;;;;;;;;;;;26.40;34.00;;;;;;5072728;28;20443;-59
2021/01/05 06:58:43;;;;;;;;;;;26.40;34.10;;;;;;5072948;28;19927;-58
2021/01/05 07:01:09;;;;;;;;;;;26.40;33.70;;;;;;5072933;28;19913;-56
2021/01/05 07:03:34;;;;;;;;;;;25.80;25.80;;;;;;5072706;28;20472;-56
2021/01/05 07:06:00;;;;;;;;;;;24.80;28.70;;;;;;5072666;28;19916;-56
2021/01/05 07:08:25;;;;;;;;;;;24.80;29.90;;;;;;5075426;28;19978;-54
2021/01/05 07:10:51;;;;;;;;;;;25.10;30.60;;;;;;5092958;28;19916;-55
2021/01/05 07:13:16;;;;;;;;;;;25.30;31.80;;;;;;5093084;28;20384;-52
2021/01/05 07:15:42;;;;;;;;;;;25.60;32.30;;;;;;5092655;28;19912;-54
2021/01/05 07:18:08;;;;;;;;;;;25.70;33.00;;;;;;5092933;28;19915;-56
2021/01/05 07:20:34;;;;;;;;;;;;;;;;;;5092904;28;19913;-57
2021/01/05 07:23:00;;;;;;;;;;;26.20;38.30;;;;;;5091552;28;19912;-52
2021/01/05 07:25:25;;;;;;;;;;;26.40;37.50;;;;;;5085168;28;19912;-52
2021/01/05 07:27:50;;;;;;;;;;;26.50;37.00;;;;;;5072247;28;20282;-52
2021/01/05 07:30:16;;;;;;;;;;;26.40;37.00;;;;;;5072595;28;19917;-55
2021/01/05 07:32:42;;;;;;;;;;;26.40;38.70;;;;;;5072712;28;20354;-55
2021/01/05 07:35:09;;;;;;;;;;;26.40;42.30;;;;;;5072378;28;19991;-54
2021/01/05 07:37:35;;;;;;;;;;;26.50;45.70;;;;;;5087890;28;20374;-55
2021/01/05 07:40:00;;;;;;;;;;;26.50;45.60;;;;;;5082578;28;19913;-60
2021/01/05 07:42:27;;;;;;;;;;;26.50;46.30;;;;;;5052216;28;19909;-60
2021/01/05 07:44:53;;;;;;;;;;;26.50;45.40;;;;;;5052488;28;19913;-70
2021/01/05 07:47:20;;;;;;;;;;;26.40;45.00;;;;;;5055763;28;19917;-70
2021/01/05 07:49:45;;;;;;;;;;;26.40;44.40;;;;;;5055893;28;20264;-70
2021/01/05 07:52:24;;;;;;;;;;;26.40;43.90;;;;;;5056197;28;19909;-71
2021/01/05 07:54:50;;;;;;;;;;;26.40;43.70;;;;;;5074434;28;19916;-70
2021/01/05 07:57:15;;;;;;;;;;;26.30;43.90;;;;;;5075404;28;19909;-70
2021/01/05 07:59:41;;;;;;;;;;;26.40;43.60;;;;;;5090720;28;20362;-60
2021/01/05 08:02:07;;;;;;;;;;;26.40;43.20;;;;;;5092910;28;20369;-60
2021/01/05 08:04:33;;;;;;;;;;;26.40;43.60;;;;;;5075487;28;19948;-61
2021/01/05 08:06:58;;;;;;;;;;;26.40;43.10;;;;;;5075510;28;19946;-62
2021/01/05 08:09:24;;;;;;;;;;;26.50;42.90;;;;;;5075420;28;19917;-61
2021/01/05 08:11:49;;;;;;;;;;;26.60;42.70;;;;;;5075674;28;20330;-66
2021/01/05 08:14:15;;;;;;;;;;;26.70;42.60;;;;;;5075368;28;19912;-65
2021/01/05 08:16:40;;;;;;;;;;;26.80;42.40;;;;;;5075555;28;19915;-60
2021/01/05 08:19:06;;;;;;;;;;;26.80;42.30;;;;;;5093699;28;20325;-66
2021/01/05 08:21:31;;;;;;;;;;;26.90;42.40;;;;;;5095504;28;19915;-61
2021/01/05 08:23:57;;;;;;;;;;;26.90;42.30;;;;;;5095638;28;19953;-62
2021/01/05 08:26:22;;;;;;;;;;;26.90;42.00;;;;;;5079301;28;19919;-65
2021/01/05 08:28:48;;;;;;;;;;;27.00;42.20;;;;;;5094366;28;19977;-60
2021/01/05 08:31:14;;;;;;;;;;;27.00;42.70;;;;;;5095459;28;20270;-62
2021/01/05 08:33:39;;;;;;;;;;;27.00;42.00;;;;;;5095490;28;19908;-64
2021/01/05 08:36:05;;;;;;;;;;;27.10;42.10;;;;;;5095268;28;19916;-63
2021/01/05 08:38:31;;;;;;;;;;;27.10;42.20;;;;;;5079568;28;20290;-65
2021/01/05 08:40:56;;;;;;;;;;;27.10;42.10;;;;;;5075128;28;19908;-62
2021/01/05 08:43:22;;;;;;;;;;;27.10;42.10;;;;;;5074967;28;19991;-67
2021/01/05 08:45:47;;;;;;;;;;;27.20;42.10;;;;;;5074983;28;19995;-66
2021/01/05 08:48:13;;;;;;;;;;;27.20;42.30;;;;;;5074977;28;20362;-61
2021/01/05 08:50:38;;;;;;;;;;;27.20;42.10;;;;;;5074582;28;19952;-62
2021/01/05 08:53:07;;;;;;;;;;;27.20;41.90;;;;;;5062217;28;19920;-59
2021/01/05 08:55:36;;;;;;;;;;;27.20;42.20;;;;;;5054890;28;19935;-59
2021/01/05 08:58:01;;;;;;;;;;;27.20;42.10;;;;;;5065679;28;20370;-62
2021/01/05 09:00:27;;;;;;;;;;;27.20;42.30;;;;;;5075653;28;19912;-62
2021/01/05 09:02:52;;;;;;;;;;;27.20;42.00;;;;;;5074538;28;19908;-63
2021/01/05 09:05:18;;;;;;;;;;;27.30;42.10;;;;;;5074549;28;19962;-63
2021/01/05 09:07:43;;;;;;;;;;;27.20;42.10;;;;;;5074719;28;19912;-63
2021/01/05 09:10:13;;;;;;;;;;;27.30;42.10;;;;;;5074451;28;20279;-62
2021/01/05 09:12:38;;;;;;;;;;;27.30;41.90;;;;;;5089975;28;19947;-59
2021/01/05 09:15:04;;;;;;;;;;;27.30;41.80;;;;;;5078207;28;19950;-63
2021/01/05 09:17:30;;;;;;;;;;;27.40;41.90;;;;;;5094396;28;20247;-62
2021/01/05 09:19:55;;;;;;;;;;;27.40;42.00;;;;;;5094732;28;19908;-65
2021/01/05 09:22:24;;;;;;;;;;;27.40;42.00;;;;;;5094484;28;20453;-66
2021/01/05 09:24:49;;;;;;;;;;;27.40;42.30;;;;;;5094285;28;19909;-66
2021/01/05 09:27:15;;;;;;;;;;;27.40;42.10;;;;;;5094518;28;19931;-65
2021/01/05 09:29:40;;;;;;;;;;;27.50;42.20;;;;;;5091030;28;19920;-65
2021/01/05 09:32:06;;;;;;;;;;;27.40;42.20;;;;;;5080172;28;20294;-63
2021/01/05 09:34:31;;;;;;;;;;;27.40;42.40;;;;;;5090724;28;19923;-69
2021/01/05 09:36:57;;;;;;;;;;;27.40;42.00;;;;;;5094019;28;19919;-67
2021/01/05 09:39:22;;;;;;;;;;;27.50;42.10;;;;;;5094255;28;19908;-60
2021/01/05 09:41:55;;;;;;;;;;;27.50;42.60;;;;;;5093887;28;19908;-62
2021/01/05 09:44:21;;;;;;;;;;;27.50;42.10;;;;;;5094178;28;19958;-61
2021/01/05 09:46:53;;;;;;;;;;;27.50;42.00;;;;;;5075941;28;20327;-62
2021/01/05 09:49:18;;;;;;;;;;;27.50;42.00;;;;;;5073746;28;19912;-63
2021/01/05 09:51:44;;;;;;;;;;;27.50;42.00;;;;;;5073780;28;19914;-61
2021/01/05 09:54:10;;;;;;;;;;;27.50;42.20;;;;;;5073422;28;19955;-63
2021/01/05 09:56:35;;;;;;;;;;;27.50;42.30;;;;;;5073403;28;19909;-63
2021/01/05 09:59:01;;;;;;;;;;;27.50;42.30;;;;;;5073607;28;19909;-61
2021/01/05 10:01:27;;;;;;;;;;;27.60;42.50;;;;;;5074361;28;19913;-61
2021/01/05 10:03:52;;;;;;;;;;;27.60;42.50;;;;;;5075888;28;19932;-66
2021/01/05 10:06:18;;;;;;;;;;;27.50;43.00;;;;;;5073197;28;19915;-68
2021/01/05 10:08:43;;;;;;;;;;;27.40;36.10;;;;;;5073149;28;19950;-65
2021/01/05 10:11:09;;;;;;;;;;;26.80;36.40;;;;;;5072981;28;19923;-62
2021/01/05 10:13:34;;;;;;;;;;;26.70;38.50;;;;;;5073345;28;19999;-61
2021/01/05 10:16:00;;;;;;;;;;;26.80;39.30;;;;;;5073124;28;19908;-61
2021/01/05 10:18:25;;;;;;;;;;;26.90;39.80;;;;;;5075740;28;20051;-58
2021/01/05 10:20:51;;;;;;;;;;;27.00;41.20;;;;;;5072679;28;20279;-68
2021/01/05 10:23:16;;;;;;;;;;;27.00;40.70;;;;;;5072908;28;19908;-59
2021/01/05 10:25:42;;;;;;;;;;;27.20;40.90;;;;;;5073113;28;19909;-59
2021/01/05 10:28:07;;;;;;;;;;;27.20;41.10;;;;;;5072867;28;20519;-62
2021/01/05 10:30:32;;;;;;;;;;;27.20;41.10;;;;;;5073178;28;20454;-62
2021/01/05 10:32:58;;;;;;;;;;;27.20;41.20;;;;;;5079287;28;19916;-64
2021/01/05 10:35:23;;;;;;;;;;;27.20;41.20;;;;;;5082124;28;19959;-61
2021/01/05 10:37:49;;;;;;;;;;;27.30;41.30;;;;;;5092846;28;20313;-63
2021/01/05 10:40:15;;;;;;;;;;;27.30;41.30;;;;;;5093188;28;19912;-63
2021/01/05 10:42:44;;;;;;;;;;;27.30;41.30;;;;;;5091888;28;20007;-61
2021/01/05 10:45:10;;;;;;;;;;;27.30;41.30;;;;;;5093046;28;19912;-61
2021/01/05 10:47:38;;;;;;;;;;;27.30;41.30;;;;;;5092803;28;20282;-68
2021/01/05 10:50:05;;;;;;;;;;;27.30;41.40;;;;;;5089463;28;20022;-61
2021/01/05 10:52:30;;;;;;;;;;;27.30;41.40;;;;;;5092724;28;19995;-60
2021/01/05 10:54:56;;;;;;;;;;;27.20;41.40;;;;;;5092932;28;20006;-63
2021/01/05 10:57:21;;;;;;;;;;;27.30;41.40;;;;;;5092673;28;20377;-61
2021/01/05 10:59:47;;;;;;;;;;;27.30;41.40;;;;;;5092647;28;19914;-57
2021/01/05 11:02:12;;;;;;;;;;;27.30;41.40;;;;;;5074845;28;19913;-59
2021/01/05 11:04:38;;;;;;;;;;;27.30;41.40;;;;;;5072837;28;20485;-72
2021/01/05 11:07:04;;;;;;;;;;;27.20;41.40;;;;;;5072351;28;19917;-71
2021/01/05 11:09:30;;;;;;;;;;;27.20;42.00;;;;;;5080158;28;19916;-61
2021/01/05 11:12:01;;;;;;;;;;;27.20;41.80;;;;;;5093101;28;20313;-67
2021/01/05 11:14:27;;;;;;;;;;;27.10;41.70;;;;;;5092827;28;19908;-66
2021/01/05 11:16:52;;;;;;;;;;;27.20;41.60;;;;;;5087823;28;20371;-67
2021/01/05 11:19:18;;;;;;;;;;;27.20;41.50;;;;;;5072747;28;20347;-66
2021/01/05 11:21:50;;;;;;;;;;;27.20;41.40;;;;;;5091052;28;20001;-63
2021/01/05 11:24:16;;;;;;;;;;;27.20;41.40;;;;;;5076536;28;19908;-62
2021/01/05 11:26:41;;;;;;;;;;;27.20;41.50;;;;;;5076285;28;19915;-61
2021/01/05 11:29:07;;;;;;;;;;;27.20;41.60;;;;;;5075795;28;19924;-58
2021/01/05 11:31:32;;;;;;;;;;;27.10;41.60;;;;;;5079527;28;19942;-57
2021/01/05 11:33:58;;;;;;;;;;;27.10;41.50;;;;;;5096340;28;20301;-62
2021/01/05 11:36:24;;;;;;;;;;;27.10;41.40;;;;;;5096237;28;19912;-63
2021/01/05 11:38:50;;;;;;;;;;;27.10;41.60;;;;;;5096176;28;19916;-63
2021/01/05 11:41:20;;;;;;;;;;;27.10;41.40;;;;;;5096436;28;19919;-63
2021/01/05 11:43:45;;;;;;;;;;;27.20;41.30;;;;;;5096094;28;19908;-63
2021/01/05 11:46:11;;;;;;;;;;;27.10;41.20;;;;;;5093212;28;19908;-63
2021/01/05 11:48:36;;;;;;;;;;;27.10;41.20;;;;;;5082076;28;20289;-63
2021/01/05 11:51:01;;;;;;;;;;;27.10;41.20;;;;;;5096176;28;19916;-60
2021/01/05 11:53:27;;;;;;;;;;;27.10;41.20;;;;;;5096219;28;19908;-56
2021/01/05 11:55:53;;;;;;;;;;;27.10;41.20;;;;;;5096054;28;19965;-56
2021/01/05 11:58:18;;;;;;;;;;;27.20;41.20;;;;;;5095955;28;20316;-57
2021/01/05 12:00:44;;;;;;;;;;;27.20;41.10;;;;;;5096225;28;19908;-56
2021/01/05 12:03:09;;;;;;;;;;;27.20;41.10;;;;;;5077729;28;19912;-58
2021/01/05 12:05:35;;;;;;;;;;;27.20;41.00;;;;;;5075824;28;19917;-56
2021/01/05 12:08:00;;;;;;;;;;;27.20;41.00;;;;;;5075524;28;19912;-59
2021/01/05 12:10:25;;;;;;;;;;;27.30;41.00;;;;;;5083243;28;19916;-60
2021/01/05 12:12:51;;;;;;;;;;;27.50;40.70;;;;;;5095633;28;19918;-60
2021/01/05 12:15:16;;;;;;;;;;;27.70;40.30;;;;;;5095655;28;19908;-61
2021/01/05 12:17:42;;;;;;;;;;;27.90;40.10;;;;;;5084244;28;19932;-60
2021/01/05 12:20:07;;;;;;;;;;;28.00;39.80;;;;;;5075527;28;19965;-60
2021/01/05 12:22:33;;;;;;;;;;;28.10;39.60;;;;;;5075527;28;19912;-58
2021/01/05 12:24:58;;;;;;;;;;;28.20;39.50;;;;;;5081196;28;19912;-56
2021/01/05 12:27:24;;;;;;;;;;;28.30;39.50;;;;;;5085800;28;19935;-59
2021/01/05 12:29:50;;;;;;;;;;;28.30;39.50;;;;;;5074819;28;19931;-59
2021/01/05 12:32:17;;;;;;;;;;;28.30;39.30;;;;;;5073346;28;21372;-60
2021/01/05 12:34:46;;;;;;;;;;;28.40;39.20;;;;;;5075287;28;19934;-61
2021/01/05 12:37:13;;;;;;;;;;;28.40;39.10;;;;;;5075091;28;20255;-60
2021/01/05 12:39:39;;;;;;;;;;;28.40;39.00;;;;;;5075284;28;19915;-59
2021/01/05 12:42:13;;;;;;;;;;;28.40;38.90;;;;;;5082983;28;20282;-60
2021/01/05 12:44:38;;;;;;;;;;;28.50;39.60;;;;;;5095111;28;20374;-60
2021/01/05 12:47:04;;;;;;;;;;;28.50;38.80;;;;;;5094885;28;19924;-56
2021/01/05 12:49:29;;;;;;;;;;;28.50;38.80;;;;;;5095158;28;19912;-63
2021/01/05 12:51:54;;;;;;;;;;;28.50;38.70;;;;;;5094893;28;19908;-58
2021/01/05 12:54:24;;;;;;;;;;;28.60;38.70;;;;;;5094557;28;19920;-63
2021/01/05 12:56:49;;;;;;;;;;;28.50;38.60;;;;;;5063459;28;19912;-59
2021/01/05 12:59:15;;;;;;;;;;;28.60;38.60;;;;;;5094798;28;19914;-60
2021/01/05 13:01:41;;;;;;;;;;;28.60;38.50;;;;;;5094956;28;19912;-58
2021/01/05 13:04:06;;;;;;;;;;;28.60;38.50;;;;;;5095022;28;19958;-60
2021/01/05 13:06:32;;;;;;;;;;;28.60;38.40;;;;;;5094618;28;20378;-52
2021/01/05 13:08:57;;;;;;;;;;;28.60;38.30;;;;;;5094523;28;19909;-62
2021/01/05 13:11:23;;;;;;;;;;;28.70;38.30;;;;;;5092154;28;19928;-64
2021/01/05 13:13:49;;;;;;;;;;;28.70;38.20;;;;;;5093865;28;19912;-64
2021/01/05 13:16:27;;;;;;;;;;;28.70;38.10;;;;;;5094619;28;19935;-61
2021/01/05 13:18:52;;;;;;;;;;;28.70;38.20;;;;;;5094386;28;19916;-52
2021/01/05 13:21:26;;;;;;;;;;;28.70;38.10;;;;;;5094472;28;19908;-53
2021/01/05 13:23:52;;;;;;;;;;;28.70;38.30;;;;;;5094559;28;19919;-61
2021/01/05 13:26:18;;;;;;;;;;;28.70;38.10;;;;;;5077941;28;20370;-61
2021/01/05 13:28:44;;;;;;;;;;;28.70;38.00;;;;;;5073916;28;19966;-60
2021/01/05 13:31:09;;;;;;;;;;;28.80;38.00;;;;;;5074042;28;20353;-62
2021/01/05 13:33:35;;;;;;;;;;;28.80;38.00;;;;;;5073838;28;20003;-60
2021/01/05 13:36:00;;;;;;;;;;;28.80;37.90;;;;;;5073900;28;19908;-60
2021/01/05 13:38:26;;;;;;;;;;;28.80;38.00;;;;;;5074072;28;20251;-66
2021/01/05 13:40:52;;;;;;;;;;;28.80;38.00;;;;;;5088064;28;19919;-63
2021/01/05 13:43:17;;;;;;;;;;;28.80;37.90;;;;;;5093962;28;20273;-58
2021/01/05 13:45:42;;;;;;;;;;;28.70;37.90;;;;;;5093874;28;19908;-59
2021/01/05 13:48:08;;;;;;;;;;;28.70;38.00;;;;;;5094064;28;19961;-60
2021/01/05 13:50:33;;;;;;;;;;;28.70;38.00;;;;;;5093867;28;20291;-59
2021/01/05 13:52:59;;;;;;;;;;;28.80;37.90;;;;;;5093949;28;20388;-60
2021/01/05 13:55:25;;;;;;;;;;;28.80;37.90;;;;;;5080796;28;19961;-62
2021/01/05 13:57:50;;;;;;;;;;;28.80;37.70;;;;;;5073354;28;19919;-63
2021/01/05 14:00:16;;;;;;;;;;;28.80;37.80;;;;;;5073379;28;20020;-60
2021/01/05 14:02:41;;;;;;;;;;;28.80;37.70;;;;;;5074556;28;19959;-58
2021/01/05 14:05:07;;;;;;;;;;;28.80;37.60;;;;;;5079809;28;20019;-56
2021/01/05 14:07:33;;;;;;;;;;;28.90;37.60;;;;;;5089834;28;19913;-61
2021/01/05 14:09:58;;;;;;;;;;;28.90;37.60;;;;;;5073023;28;19924;-71
2021/01/05 14:12:25;;;;;;;;;;;28.90;37.50;;;;;;5092166;28;19912;-61
2021/01/05 14:14:52;;;;;;;;;;;28.90;37.60;;;;;;5093273;28;20319;-63
2021/01/05 14:17:17;;;;;;;;;;;29.00;37.80;;;;;;5093391;28;19908;-57
2021/01/05 14:19:43;;;;;;;;;;;29.00;37.60;;;;;;5093393;28;19966;-61